createdAt,value
2022-10-15T00:02:36.377Z,30.07
2022-10-15T00:05:23.697Z,30.23
2022-10-15T00:08:11.749Z,29.43
2022-10-15T00:11:12.545Z,30.90
2022-10-15T00:14:00.682Z,29.30
2022-10-15T00:16:47.797Z,28.50
2022-10-15T00:19:34.708Z,28.37
2022-10-15T00:22:22.094Z,28.77
2022-10-15T00:25:09.857Z,30.10
2022-10-15T00:27:56.909Z,28.33
2022-10-15T00:30:43.852Z,30.37
2022-10-15T00:33:31.237Z,29.73
2022-10-15T00:36:27.137Z,30.43
2022-10-15T00:39:14.145Z,29.63
2022-10-15T00:42:01.089Z,31.57
2022-10-15T00:44:49.626Z,31.87
2022-10-15T00:47:42.445Z,31.77
2022-10-15T00:50:29.656Z,35.90
2022-10-15T00:53:17.015Z,33.53
2022-10-15T00:56:05.487Z,31.57
2022-10-15T00:58:54.241Z,32.30
2022-10-15T01:01:42.008Z,33.33
2022-10-15T01:04:30.797Z,34.60
2022-10-15T01:07:17.799Z,34.30
2022-10-15T01:10:06.645Z,33.67
2022-10-15T01:13:22.831Z,31.97
2022-10-15T01:16:19.855Z,34.37
2022-10-15T01:19:23.833Z,38.53
2022-10-15T01:22:21.844Z,34.10
2022-10-15T01:25:08.759Z,30.83
2022-10-15T01:28:23.468Z,34.27
2022-10-15T01:31:35.972Z,30.17
2022-10-15T01:34:34.939Z,29.27
2022-10-15T01:38:00.461Z,32.30
2022-10-15T01:40:56.496Z,28.03
2022-10-15T01:44:09.859Z,28.10
2022-10-15T01:47:21.133Z,30.33
2022-10-15T01:50:12.701Z,32.00
2022-10-15T01:53:02.281Z,32.30
2022-10-15T01:55:49.770Z,28.83
2022-10-15T01:58:43.023Z,26.67
2022-10-15T02:01:30.081Z,27.30
2022-10-15T02:04:23.601Z,29.90
2022-10-15T02:07:21.572Z,27.63
2022-10-15T02:10:18.084Z,30.73
2022-10-15T02:13:23.621Z,32.27
2022-10-15T02:16:19.565Z,31.63
2022-10-15T02:19:43.285Z,33.30
2022-10-15T02:22:40.484Z,36.43
2022-10-15T02:25:28.539Z,34.43
2022-10-15T02:28:18.089Z,31.53
2022-10-15T02:31:06.109Z,36.23
2022-10-15T02:33:58.037Z,31.63
2022-10-15T02:36:46.709Z,34.73
2022-10-15T02:39:34.222Z,34.70
2022-10-15T02:42:21.996Z,30.70
2022-10-15T02:45:09.797Z,31.90
2022-10-15T02:47:56.726Z,32.43
2022-10-15T02:50:43.956Z,34.10
2022-10-15T02:53:30.884Z,34.90
2022-10-15T02:56:18.078Z,41.60
2022-10-15T02:59:06.250Z,38.43
2022-10-15T03:01:54.147Z,34.77
2022-10-15T03:04:41.082Z,36.83
2022-10-15T03:07:28.117Z,35.27
2022-10-15T03:10:15.174Z,36.07
2022-10-15T03:13:04.181Z,36.13
2022-10-15T03:15:51.221Z,33.90
2022-10-15T03:18:40.623Z,32.77
2022-10-15T03:21:30.910Z,33.47
2022-10-15T03:24:17.905Z,32.83
2022-10-15T03:27:04.831Z,28.03
2022-10-15T03:29:51.868Z,30.57
2022-10-15T03:32:38.793Z,38.27
2022-10-15T03:35:25.790Z,34.10
2022-10-15T03:38:12.708Z,34.77
2022-10-15T03:40:59.720Z,36.13
2022-10-15T03:43:46.717Z,31.23
2022-10-15T03:46:34.530Z,33.73
2022-10-15T03:49:22.001Z,36.00
2022-10-15T03:52:09.616Z,34.30
2022-10-15T03:54:56.614Z,35.00
2022-10-15T03:57:43.653Z,32.83
2022-10-15T04:00:30.626Z,36.93
2022-10-15T04:03:17.540Z,42.17
2022-10-15T04:06:05.114Z,38.67
2022-10-15T04:11:39.003Z,43.40
2022-10-15T04:14:26.125Z,42.97
2022-10-15T04:17:13.169Z,34.03
2022-10-15T04:20:00.146Z,27.47
2022-10-15T04:22:47.078Z,34.50
2022-10-15T04:25:34.026Z,37.47
2022-10-15T04:28:20.998Z,35.57
2022-10-15T04:31:08.961Z,30.97
2022-10-15T04:33:55.974Z,31.70
2022-10-15T04:36:42.917Z,31.13
2022-10-15T04:39:30.199Z,29.73
2022-10-15T04:42:17.937Z,29.40
2022-10-15T04:45:05.788Z,31.17
2022-10-15T04:47:52.827Z,30.60
2022-10-15T04:50:39.998Z,29.20
2022-10-15T04:53:27.005Z,32.80
2022-10-15T04:56:17.958Z,29.27
2022-10-15T04:59:08.127Z,31.33
2022-10-15T05:01:55.247Z,31.43
2022-10-15T05:04:42.268Z,37.83
2022-10-15T05:07:29.335Z,30.23
2022-10-15T05:10:16.494Z,29.20
2022-10-15T05:13:03.870Z,33.77
2022-10-15T05:15:50.893Z,27.57
2022-10-15T05:18:39.177Z,32.07
2022-10-15T05:21:26.499Z,29.53
2022-10-15T05:24:13.485Z,33.40
2022-10-15T05:27:02.937Z,37.93
2022-10-15T05:29:50.385Z,36.17
2022-10-15T05:32:37.405Z,32.67
2022-10-15T05:35:24.523Z,41.87
2022-10-15T05:38:11.491Z,37.57
2022-10-15T05:40:58.550Z,47.40
2022-10-15T05:43:50.852Z,46.83
2022-10-15T05:46:38.133Z,45.43
2022-10-15T05:49:25.154Z,52.10
2022-10-15T05:52:12.168Z,53.37
2022-10-15T05:54:59.209Z,53.73
2022-10-15T05:57:46.201Z,54.30
2022-10-15T06:00:33.529Z,51.97
2022-10-15T06:03:20.582Z,50.43
2022-10-15T06:06:15.752Z,48.27
2022-10-15T06:09:03.147Z,46.90
2022-10-15T06:11:50.322Z,53.97
2022-10-15T06:14:37.316Z,48.70
2022-10-15T06:17:24.896Z,48.03
2022-10-15T06:20:13.046Z,51.40
2022-10-15T06:23:01.021Z,52.43
2022-10-15T06:25:48.013Z,54.43
2022-10-15T06:28:36.337Z,52.80
2022-10-15T06:31:23.817Z,55.07
2022-10-15T06:34:10.810Z,50.33
2022-10-15T06:36:57.934Z,49.67
2022-10-15T06:39:46.816Z,49.47
2022-10-15T06:42:33.823Z,52.27
2022-10-15T06:45:21.904Z,52.30
2022-10-15T06:48:10.256Z,52.90
2022-10-15T06:51:01.910Z,52.87
2022-10-15T06:53:48.919Z,49.43
2022-10-15T06:56:36.347Z,54.93
2022-10-15T06:59:23.563Z,50.70
2022-10-15T07:02:11.520Z,50.73
2022-10-15T07:04:58.535Z,47.13
2022-10-15T07:07:56.421Z,52.43
2022-10-15T07:10:43.462Z,51.40
2022-10-15T07:13:30.926Z,53.17
2022-10-15T07:24:41.853Z,52.07
2022-10-15T07:27:29.036Z,56.40
2022-10-15T07:30:16.281Z,53.47
2022-10-15T07:33:03.288Z,51.83
2022-10-15T07:35:50.353Z,54.30
2022-10-15T07:38:37.636Z,53.70
2022-10-15T07:41:24.798Z,51.63
2022-10-15T07:44:11.886Z,51.17
2022-10-15T07:46:58.911Z,53.57
2022-10-15T07:49:45.890Z,53.37
2022-10-15T07:52:32.917Z,49.73
2022-10-15T07:55:19.926Z,51.20
2022-10-15T07:58:08.445Z,51.67
2022-10-15T08:00:55.487Z,52.13
2022-10-15T08:03:42.478Z,52.67
2022-10-15T08:06:31.981Z,51.13
2022-10-15T08:09:19.261Z,51.33
2022-10-15T08:12:07.184Z,49.73
2022-10-15T08:14:54.378Z,49.33
2022-10-15T08:17:41.467Z,47.97
2022-10-15T08:20:28.473Z,49.33
2022-10-15T08:23:24.649Z,45.70
2022-10-15T08:26:11.790Z,44.10
2022-10-15T08:28:58.847Z,42.70
2022-10-15T08:31:45.883Z,43.37
2022-10-15T08:34:32.880Z,42.83
2022-10-15T08:37:19.817Z,40.73
2022-10-15T08:40:07.977Z,40.63
2022-10-15T08:42:55.105Z,39.73
2022-10-15T08:45:45.254Z,39.50
2022-10-15T08:48:41.622Z,40.33
2022-10-15T08:51:47.032Z,39.17
2022-10-15T08:54:35.654Z,38.73
2022-10-15T08:57:25.795Z,38.20
2022-10-15T09:00:17.831Z,39.13
2022-10-15T09:03:29.710Z,37.47
2022-10-15T09:06:30.542Z,36.37
2022-10-15T09:09:53.249Z,37.33
2022-10-15T09:13:02.291Z,35.50
2022-10-15T09:15:58.756Z,35.80
2022-10-15T09:18:48.765Z,34.30
2022-10-15T09:21:36.161Z,36.07
2022-10-15T09:24:25.605Z,34.17
2022-10-15T09:27:36.930Z,32.60
2022-10-15T09:30:27.138Z,33.50
2022-10-15T09:33:40.072Z,32.63
2022-10-15T09:36:43.713Z,32.70
2022-10-15T09:39:36.804Z,32.23
2022-10-15T09:42:41.794Z,30.33
2022-10-15T09:45:28.748Z,30.70
2022-10-15T09:48:18.781Z,30.10
2022-10-15T09:51:24.325Z,30.87
2022-10-15T09:54:23.439Z,28.20
2022-10-15T09:57:13.090Z,28.77
2022-10-15T10:00:02.042Z,29.67
2022-10-15T10:03:14.052Z,29.53
2022-10-15T10:06:10.713Z,30.93
2022-10-15T10:08:59.927Z,30.20
2022-10-15T10:11:56.410Z,29.40
2022-10-15T10:14:53.332Z,29.00
2022-10-15T10:17:52.961Z,27.23
2022-10-15T10:20:53.873Z,27.23
2022-10-15T10:23:41.706Z,24.33
2022-10-15T10:26:36.159Z,22.53
2022-10-15T10:29:36.789Z,21.20
2022-10-15T10:32:30.768Z,19.67
2022-10-15T10:35:24.222Z,19.47
2022-10-15T10:38:26.667Z,18.33
2022-10-15T10:41:13.601Z,17.60
2022-10-15T10:44:00.851Z,16.90
2022-10-15T10:47:04.862Z,16.87
2022-10-15T10:49:57.465Z,15.67
2022-10-15T10:52:44.573Z,15.37
2022-10-15T10:55:39.886Z,14.90
2022-10-15T10:58:29.606Z,14.50
2022-10-15T11:01:16.697Z,13.97
2022-10-15T11:04:04.349Z,15.57
2022-10-15T11:07:14.045Z,15.67
2022-10-15T11:10:25.792Z,15.17
2022-10-15T11:13:33.756Z,13.33
2022-10-15T11:16:45.527Z,14.07
2022-10-15T11:20:20.009Z,13.83
2022-10-15T11:23:32.882Z,13.10
2022-10-15T11:26:37.044Z,12.67
2022-10-15T11:29:38.131Z,12.53
2022-10-15T11:32:26.091Z,13.10
2022-10-15T11:35:52.490Z,13.40
2022-10-15T11:39:11.689Z,12.27
2022-10-15T11:42:12.661Z,12.23
2022-10-15T11:45:06.399Z,12.73
2022-10-15T11:48:00.047Z,10.80
2022-10-15T11:50:57.786Z,11.03
2022-10-15T11:54:04.750Z,11.93
2022-10-15T11:56:54.219Z,10.67
2022-10-15T11:59:41.108Z,11.93
2022-10-15T12:02:38.088Z,11.13
2022-10-15T12:05:40.166Z,11.30
2022-10-15T12:08:33.209Z,10.53
2022-10-15T12:11:38.467Z,10.20
2022-10-15T12:14:30.641Z,10.13
2022-10-15T12:17:30.531Z,10.07
2022-10-15T12:20:20.831Z,10.40
2022-10-15T12:23:41.729Z,10.13
2022-10-15T12:26:35.015Z,9.57
2022-10-15T12:29:26.891Z,10.03
2022-10-15T12:32:28.985Z,9.00
2022-10-15T12:35:15.981Z,8.53
2022-10-15T12:38:21.932Z,7.00
2022-10-15T12:41:11.753Z,6.67
2022-10-15T12:44:27.428Z,6.07
2022-10-15T12:47:14.417Z,5.97
2022-10-15T12:50:05.229Z,5.07
2022-10-15T12:53:04.576Z,5.97
2022-10-15T12:56:09.858Z,6.20
2022-10-15T12:58:56.903Z,6.03
2022-10-15T13:01:43.754Z,5.80
2022-10-15T13:04:38.851Z,5.70
2022-10-15T13:07:26.273Z,5.07
2022-10-15T13:10:48.089Z,5.50
2022-10-15T13:13:35.689Z,4.87
2022-10-15T13:16:23.090Z,4.80
2022-10-15T13:19:22.628Z,4.43
2022-10-15T13:22:23.956Z,4.63
2022-10-15T13:25:17.903Z,4.50
2022-10-15T13:28:33.967Z,4.50
2022-10-15T13:31:37.453Z,3.73
2022-10-15T13:34:29.838Z,3.40
2022-10-15T13:37:28.614Z,3.30
2022-10-15T13:40:24.872Z,3.30
2022-10-15T13:43:18.752Z,3.57
2022-10-15T13:46:05.896Z,3.20
2022-10-15T13:49:01.395Z,2.67
2022-10-15T13:51:51.965Z,2.73
2022-10-15T13:54:39.140Z,2.63
2022-10-15T13:57:26.106Z,3.10
2022-10-15T14:00:32.708Z,2.40
2022-10-15T14:03:25.561Z,2.00
2022-10-15T14:06:24.253Z,2.00
2022-10-15T14:09:19.632Z,1.60
2022-10-15T14:12:07.972Z,1.63
2022-10-15T14:14:54.886Z,1.50
2022-10-15T14:17:41.898Z,1.43
2022-10-15T14:20:28.997Z,1.50
2022-10-15T14:23:21.193Z,1.37
2022-10-15T14:26:10.263Z,1.20
2022-10-15T14:28:57.678Z,1.30
2022-10-15T14:31:48.117Z,1.27
2022-10-15T14:34:34.985Z,1.20
2022-10-15T14:37:37.341Z,1.50
2022-10-15T14:40:24.331Z,1.60
2022-10-15T14:43:18.508Z,1.50
2022-10-15T14:46:11.735Z,1.60
2022-10-15T14:48:58.751Z,1.80
2022-10-15T14:51:46.353Z,1.60
2022-10-15T14:54:38.215Z,1.40
2022-10-15T14:57:28.690Z,1.70
2022-10-15T15:00:24.734Z,1.80
2022-10-15T15:03:16.145Z,1.80
2022-10-15T15:06:03.276Z,1.40
2022-10-15T15:08:50.213Z,1.70
2022-10-15T15:11:37.662Z,2.10
2022-10-15T15:14:27.878Z,2.00
2022-10-15T15:17:27.250Z,1.90
2022-10-15T15:20:15.585Z,2.00
2022-10-15T15:23:02.709Z,2.10
2022-10-15T15:25:50.870Z,2.20
2022-10-15T15:28:37.935Z,2.40
2022-10-15T15:31:24.857Z,2.60
2022-10-15T15:34:11.888Z,2.40
2022-10-15T15:37:01.229Z,2.77
2022-10-15T15:39:49.130Z,2.30
2022-10-15T15:42:36.133Z,2.30
2022-10-15T15:45:25.968Z,2.30
2022-10-15T15:48:12.987Z,2.30
2022-10-15T15:51:04.501Z,2.00
2022-10-15T15:53:51.947Z,2.00
2022-10-15T15:56:41.176Z,1.93
2022-10-15T15:59:28.937Z,2.27
2022-10-15T16:02:15.909Z,1.90
2022-10-15T16:05:03.978Z,2.60
2022-10-15T16:07:50.915Z,2.20
2022-10-15T16:10:37.870Z,2.10
2022-10-15T16:13:24.807Z,2.07
2022-10-15T16:16:11.915Z,2.20
2022-10-15T16:18:58.918Z,1.97
2022-10-15T16:21:45.921Z,2.47
2022-10-15T16:24:33.950Z,2.50
2022-10-15T16:27:21.482Z,2.40
2022-10-15T16:30:08.703Z,2.37
2022-10-15T16:32:55.827Z,2.23
2022-10-15T16:35:42.826Z,2.40
2022-10-15T16:38:29.797Z,2.40
2022-10-15T16:41:19.245Z,2.57
2022-10-15T16:44:06.264Z,2.63
2022-10-15T16:46:53.210Z,2.53
2022-10-15T16:49:40.208Z,2.20
2022-10-15T16:52:27.546Z,2.53
2022-10-15T16:55:16.679Z,2.40
2022-10-15T16:58:03.637Z,2.47
2022-10-15T17:00:50.554Z,2.23
2022-10-15T17:03:39.340Z,2.73
2022-10-15T17:06:29.192Z,3.47
2022-10-15T17:09:16.161Z,3.27
2022-10-15T17:12:03.437Z,4.60
2022-10-15T17:14:53.593Z,4.20
2022-10-15T17:17:40.631Z,3.30
2022-10-15T17:20:28.217Z,4.40
2022-10-15T17:23:16.582Z,4.23
2022-10-15T17:26:12.550Z,4.20
2022-10-15T17:29:00.027Z,3.40
2022-10-15T17:31:48.729Z,2.77
2022-10-15T17:34:35.862Z,2.70
2022-10-15T17:37:23.347Z,2.70
2022-10-15T17:40:10.921Z,2.90
2022-10-15T17:42:58.188Z,2.60
2022-10-15T17:45:45.431Z,2.83
2022-10-15T17:48:33.452Z,2.67
2022-10-15T17:51:23.213Z,2.80
2022-10-15T17:54:10.202Z,2.60
2022-10-15T17:56:57.145Z,2.73
2022-10-15T17:59:47.459Z,2.70
2022-10-15T18:02:37.326Z,2.60
2022-10-15T18:05:24.333Z,2.27
2022-10-15T18:08:11.309Z,2.43
2022-10-15T18:10:58.313Z,2.60
2022-10-15T18:13:45.314Z,2.70
2022-10-15T18:16:33.064Z,3.00
2022-10-15T18:19:20.165Z,2.70
2022-10-15T18:22:07.273Z,2.70
2022-10-15T18:24:56.594Z,2.50
2022-10-15T18:27:45.094Z,2.83
2022-10-15T18:30:33.709Z,2.70
2022-10-15T18:33:22.320Z,2.80
2022-10-15T18:36:13.539Z,2.80
2022-10-15T18:39:03.059Z,2.97
2022-10-15T18:41:49.982Z,2.67
2022-10-15T18:44:37.854Z,2.90
2022-10-15T18:47:26.604Z,2.70
2022-10-15T18:50:13.815Z,2.50
2022-10-15T18:53:03.623Z,2.87
2022-10-15T18:55:51.336Z,2.77
2022-10-15T18:58:39.745Z,2.80
2022-10-15T19:01:30.881Z,2.87
2022-10-15T19:04:19.889Z,2.77
2022-10-15T19:07:08.209Z,3.23
2022-10-15T19:09:55.275Z,3.67
2022-10-15T19:12:42.769Z,3.27
2022-10-15T19:15:29.769Z,3.47
2022-10-15T19:18:17.658Z,3.37
2022-10-15T19:21:05.357Z,3.40
2022-10-15T19:23:52.748Z,3.90
2022-10-15T19:26:40.029Z,3.33
2022-10-15T19:29:30.302Z,3.50
2022-10-15T19:32:20.049Z,3.40
2022-10-15T19:35:07.766Z,3.70
2022-10-15T19:37:56.446Z,3.57
2022-10-15T19:40:47.249Z,3.80
2022-10-15T19:43:37.563Z,3.40
2022-10-15T19:46:24.990Z,3.07
2022-10-15T19:49:13.212Z,3.20
2022-10-15T19:52:01.562Z,2.50
2022-10-15T19:54:50.393Z,2.33
2022-10-15T19:57:37.707Z,2.00
2022-10-15T20:00:25.110Z,2.00
2022-10-15T20:03:12.094Z,2.23
2022-10-15T20:06:08.999Z,1.90
2022-10-15T20:08:56.256Z,1.30
2022-10-15T20:11:45.024Z,1.70
2022-10-15T20:14:32.051Z,1.40
2022-10-15T20:17:23.074Z,1.20
2022-10-15T20:22:38.412Z,1.10
2022-10-15T20:25:26.516Z,0.90
2022-10-15T20:28:26.348Z,1.03
2022-10-15T20:34:33.734Z,1.10
2022-10-15T20:37:20.915Z,1.10
2022-10-15T20:40:08.547Z,1.13
2022-10-15T20:42:55.559Z,1.23
2022-10-15T20:45:44.893Z,0.87
2022-10-15T20:48:33.073Z,0.90
2022-10-15T20:51:24.659Z,1.00
2022-10-15T20:54:15.765Z,0.90
2022-10-15T20:57:03.413Z,0.90
2022-10-15T20:59:50.301Z,1.03
2022-10-15T21:02:37.284Z,1.17
2022-10-15T21:05:25.409Z,1.27
2022-10-15T21:08:13.888Z,1.20
2022-10-15T21:11:05.855Z,1.30
2022-10-15T21:13:53.736Z,1.30
2022-10-15T21:16:41.928Z,1.17
2022-10-15T21:19:30.050Z,1.60
2022-10-15T21:22:16.986Z,1.13
2022-10-15T21:25:04.949Z,1.20
2022-10-15T21:27:52.859Z,1.40
2022-10-15T21:30:41.105Z,1.20
2022-10-15T21:33:30.220Z,1.37
2022-10-15T21:36:26.799Z,1.20
2022-10-15T21:39:14.301Z,1.30
2022-10-15T21:42:03.981Z,1.47
2022-10-15T21:44:51.203Z,1.27
2022-10-15T21:47:38.698Z,1.40
2022-10-15T21:50:25.646Z,1.33
2022-10-15T21:53:12.546Z,1.37
2022-10-15T21:55:59.508Z,1.57
2022-10-15T21:58:46.757Z,1.23
2022-10-15T22:01:36.312Z,1.43
2022-10-15T22:04:23.735Z,1.50
2022-10-15T22:07:11.407Z,1.70
2022-10-15T22:09:58.359Z,1.83
2022-10-15T22:12:51.120Z,1.50
2022-10-15T22:15:38.119Z,1.50
2022-10-15T22:18:25.047Z,1.60
2022-10-15T22:21:19.729Z,1.60
2022-10-15T22:24:10.023Z,1.27
2022-10-15T22:26:56.991Z,1.40
2022-10-15T22:29:44.249Z,1.50
2022-10-15T22:32:31.315Z,1.33
2022-10-15T22:35:18.269Z,1.20
2022-10-15T22:38:05.249Z,1.30
2022-10-15T22:40:56.302Z,1.70
2022-10-15T22:43:43.741Z,1.40
2022-10-15T22:46:33.877Z,1.27
2022-10-15T22:49:22.331Z,1.50
2022-10-15T22:52:09.277Z,1.30
2022-10-15T22:54:56.241Z,1.13
2022-10-15T22:57:44.041Z,1.40
2022-10-15T23:00:31.415Z,1.47
2022-10-15T23:03:18.788Z,1.43
2022-10-15T23:06:05.971Z,1.20
2022-10-15T23:08:53.760Z,1.30
2022-10-15T23:11:41.021Z,1.27
2022-10-15T23:14:27.972Z,1.23
2022-10-15T23:17:14.992Z,1.20
2022-10-15T23:20:01.961Z,1.40
2022-10-15T23:22:48.964Z,1.50
2022-10-15T23:25:39.244Z,1.50
2022-10-15T23:28:26.255Z,1.60
2022-10-15T23:31:22.333Z,1.90
2022-10-15T23:34:21.227Z,1.50
2022-10-15T23:37:08.212Z,1.63
2022-10-15T23:39:55.146Z,1.50
2022-10-15T23:42:42.128Z,1.57
2022-10-15T23:45:29.089Z,1.60
2022-10-15T23:48:16.052Z,1.80
2022-10-15T23:51:03.831Z,1.60
2022-10-15T23:53:51.306Z,1.70
2022-10-15T23:56:38.722Z,2.07
2022-10-15T23:59:25.696Z,1.90
